Time;durP1;ratioP1;P1;durP2;ratioP2;P2;SDS_P1;SDS_P2;PMS_P1;PMS_P2;Temp;Humidity;BMP_temperature;BMP_pressure;BME280_temperature;BME280_humidity;BME280_pressure;Samples;Min_cycle;Max_cycle;Signal;HPM_P1;HPM_P2
2021/08/20 00:01:39;;;;;;;9.57;5.60;;;;;;;19.37;69.20;100518.69;4986581;28;20041;-79
2021/08/20 00:04:06;;;;;;;9.48;5.53;;;;;;;19.30;69.84;100529.72;4988852;28;20041;-79
2021/08/20 00:06:32;;;;;;;8.65;5.32;;;;;;;19.34;69.53;100523.31;4969619;28;20069;-79
2021/08/20 00:08:58;;;;;;;8.65;5.78;;;;;;;19.30;69.65;100529.72;4988329;28;20096;-78
2021/08/20 00:11:23;;;;;;;7.45;5.90;;;;;;;19.27;69.88;100534.28;4987979;28;20515;-79
2021/08/20 00:13:49;;;;;;;8.45;5.72;;;;;;;19.26;69.91;100524.50;4989907;28;20065;-78
2021/08/20 00:16:14;;;;;;;9.27;6.50;;;;;;;19.27;69.73;100528.91;4990353;28;20425;-78
2021/08/20 00:18:39;;;;;;;8.80;6.30;;;;;;;19.24;69.75;100534.41;4985408;28;20422;-79
2021/08/20 00:21:04;;;;;;;8.43;6.03;;;;;;;19.20;70.21;100538.16;4968163;28;20520;-79
2021/08/20 00:23:30;;;;;;;9.13;6.22;;;;;;;19.20;70.04;100530.13;4990230;28;20030;-79
2021/08/20 00:25:55;;;;;;;9.15;6.15;;;;;;;19.20;70.21;100527.47;4987614;28;20038;-80
2021/08/20 00:28:20;;;;;;;8.32;6.10;;;;;;;19.14;70.17;100532.19;4988190;28;20520;-80
2021/08/20 00:30:49;;;;;;;7.78;5.45;;;;;;;19.11;70.66;100535.84;4986909;28;20490;-79
2021/08/20 00:33:14;;;;;;;8.65;6.18;;;;;;;19.07;70.98;100547.59;4989397;28;20040;-79
2021/08/20 00:35:39;;;;;;;7.25;5.93;;;;;;;19.10;71.01;100536.81;4968180;28;20026;-79
2021/08/20 00:38:06;;;;;;;7.40;6.20;;;;;;;19.11;70.81;100538.53;4986651;28;20039;-79
2021/08/20 00:40:32;;;;;;;9.00;7.80;;;;;;;19.05;71.58;100536.13;4971249;28;20053;-79
2021/08/20 00:42:58;;;;;;;10.32;7.82;;;;;;;18.95;72.05;100537.44;4969994;28;20042;-80
2021/08/20 00:45:23;;;;;;;9.30;6.65;;;;;;;18.89;73.11;100543.00;4985505;28;20093;-79
2021/08/20 00:47:49;;;;;;;11.23;8.30;;;;;;;18.79;73.70;100532.69;4988154;28;20061;-79
2021/08/20 00:50:15;;;;;;;10.32;8.02;;;;;;;18.80;73.21;100534.41;4981736;28;20042;-80
2021/08/20 00:52:40;;;;;;;12.05;9.27;;;;;;;18.76;73.74;100522.13;4986089;28;20114;-79
2021/08/20 00:55:10;;;;;;;10.60;8.75;;;;;;;18.75;74.25;100519.50;4984044;28;20038;-79
2021/08/20 00:57:36;;;;;;;10.80;8.25;;;;;;;18.75;74.11;100515.00;4986912;28;20038;-79
2021/08/20 01:00:01;;;;;;;9.20;7.78;;;;;;;18.71;74.31;100524.06;4985783;28;20034;-79
2021/08/20 01:02:27;;;;;;;9.23;7.68;;;;;;;18.70;74.14;100522.31;4966364;28;20409;-79
2021/08/20 01:04:52;;;;;;;10.55;8.07;;;;;;;18.64;74.52;100522.56;4954703;28;20528;-79
2021/08/20 01:07:20;;;;;;;9.32;7.25;;;;;;;18.55;75.26;100512.25;4969839;28;20030;-79
2021/08/20 01:09:47;;;;;;;9.27;7.47;;;;;;;18.54;75.23;100518.50;4985194;28;20125;-79
2021/08/20 01:12:13;;;;;;;9.15;8.05;;;;;;;18.50;76.04;100514.25;4987188;28;20393;-79
2021/08/20 01:14:38;;;;;;;10.55;8.63;;;;;;;18.39;76.25;100512.84;4980134;28;20041;-79
2021/08/20 01:17:07;;;;;;;10.07;8.48;;;;;;;18.36;76.94;100509.41;4983375;28;20121;-79
2021/08/20 01:19:37;;;;;;;13.80;10.00;;;;;;;18.29;77.34;100514.13;4967339;28;20034;-79
2021/08/20 01:22:07;;;;;;;9.60;8.32;;;;;;;18.30;77.41;100509.66;4987073;28;20038;-79
2021/08/20 01:24:39;;;;;;;10.73;8.57;;;;;;;18.33;77.08;100513.06;4975977;28;20031;-78
2021/08/20 01:27:04;;;;;;;10.93;9.02;;;;;;;18.35;77.01;100510.34;4982692;28;20524;-79
2021/08/20 01:29:32;;;;;;;9.00;7.90;;;;;;;18.36;77.08;100506.75;4968524;28;20485;-79
2021/08/20 01:31:59;;;;;;;12.60;9.10;;;;;;;18.35;76.91;100503.19;4967472;28;20530;-79
2021/08/20 01:34:24;;;;;;;12.55;10.52;;;;;;;18.32;77.96;100507.81;4985273;28;20047;-78
2021/08/20 01:36:52;;;;;;;12.88;10.38;;;;;;;18.24;78.18;100518.78;4967903;28;20049;-78
2021/08/20 01:39:17;;;;;;;11.13;9.02;;;;;;;18.25;77.73;100509.81;4964718;28;20042;-79
2021/08/20 01:41:43;;;;;;;15.93;10.48;;;;;;;18.21;77.95;100513.56;4967203;28;20401;-79
2021/08/20 01:44:08;;;;;;;14.02;11.23;;;;;;;18.11;78.73;100522.84;4988489;28;20112;-79
2021/08/20 01:46:33;;;;;;;12.80;10.05;;;;;;;18.07;79.18;100513.19;4967329;28;20073;-79
2021/08/20 01:49:01;;;;;;;11.48;9.43;;;;;;;18.12;78.38;100519.22;4967150;28;20038;-79
2021/08/20 01:51:28;;;;;;;12.75;10.18;;;;;;;18.07;78.78;100521.22;4973088;28;20031;-79
2021/08/20 01:53:56;;;;;;;13.15;10.18;;;;;;;18.09;78.55;100520.22;4952587;28;20058;-79
2021/08/20 01:56:27;;;;;;;11.98;9.77;;;;;;;18.09;78.76;100524.69;4969560;28;20038;-79
2021/08/20 01:58:53;;;;;;;12.60;9.85;;;;;;;18.10;78.75;100526.44;4986264;28;20572;-79
2021/08/20 02:01:19;;;;;;;11.63;9.55;;;;;;;18.07;78.82;100532.75;4978619;28;20106;-78
2021/08/20 02:03:46;;;;;;;12.48;10.27;;;;;;;18.08;78.36;100529.16;4953546;28;20034;-79
2021/08/20 02:06:12;;;;;;;11.93;10.55;;;;;;;18.02;78.95;100525.84;4984139;28;20041;-79
2021/08/20 02:08:42;;;;;;;10.63;8.85;;;;;;;18.03;78.65;100531.16;4970465;28;20041;-78
2021/08/20 02:11:08;;;;;;;12.45;10.35;;;;;;;18.02;78.54;100529.38;4963169;28;20524;-79
2021/08/20 02:13:34;;;;;;;12.40;10.27;;;;;;;17.98;78.94;100527.78;4966985;28;20041;-79
2021/08/20 02:16:05;;;;;;;12.13;10.10;;;;;;;18.01;78.83;100527.66;4966693;28;20054;-79
2021/08/20 02:18:30;;;;;;;12.55;10.48;;;;;;;18.01;78.56;100524.13;4976152;28;20039;-79
2021/08/20 02:20:58;;;;;;;13.32;10.57;;;;;;;17.94;79.02;100527.00;4968109;28;20022;-79
2021/08/20 02:23:26;;;;;;;10.55;9.00;;;;;;;17.94;78.48;100531.47;4965387;28;20035;-79
2021/08/20 02:25:51;;;;;;;12.70;9.48;;;;;;;17.92;78.61;100536.88;4984254;28;20408;-79
2021/08/20 02:28:18;;;;;;;11.27;8.90;;;;;;;17.91;78.38;100521.75;4968917;28;20117;-79
2021/08/20 02:30:43;;;;;;;11.52;9.23;;;;;;;17.89;78.86;100529.00;4979768;28;20066;-79
2021/08/20 02:33:09;;;;;;;11.55;9.02;;;;;;;17.84;79.34;100525.63;4966585;28;20035;-79
2021/08/20 02:35:36;;;;;;;12.57;9.93;;;;;;;17.81;79.54;100520.34;4965580;28;20695;-79
2021/08/20 02:40:43;;;;;;;10.60;8.85;;;;;;;17.77;79.44;100517.84;1474567;26;20051;-79
2021/08/20 02:43:09;;;;;;;10.13;8.25;;;;;;;17.80;79.46;100523.97;4967694;28;20035;-79
2021/08/20 02:45:36;;;;;;;9.80;8.57;;;;;;;17.83;79.50;100520.31;4947467;29;20058;-79
2021/08/20 02:57:22;;;;;;;;;;;;;;;;;;;;;
2021/08/20 03:00:55;;;;;;;;;;;;;;;;;;;;;
2021/08/20 03:04:16;;;;;;;11.35;9.25;;;;;;;17.89;79.33;100531.66;4967032;28;20046;-79
2021/08/20 03:10:47;;;;;;;10.13;8.23;;;;;;;17.77;80.06;100528.53;4937516;29;20383;-79
2021/08/20 03:13:21;;;;;;;11.10;9.05;;;;;;;17.79;79.87;100532.91;4923342;29;20044;-79
2021/08/20 03:16:00;;;;;;;11.98;9.15;;;;;;;17.84;79.42;100530.94;4943650;28;20066;-78
2021/08/20 03:19:14;;;;;;;;;;;;;;;;;;;;;
2021/08/20 03:22:25;;;;;;;10.65;8.00;;;;;;;17.90;79.26;100524.50;4965083;28;20035;-79
2021/08/20 03:28:52;;;;;;;12.32;9.85;;;;;;;17.85;79.89;100531.81;5125729;23;20058;-79
2021/08/20 03:38:33;;;;;;;11.55;9.48;;;;;;;17.94;79.76;100543.00;1051580;26;20333;-78
2021/08/20 03:41:06;;;;;;;12.48;9.73;;;;;;;17.94;79.84;100548.34;5001641;28;20045;-79
2021/08/20 03:44:28;;;;;;;11.32;9.93;;;;;;;17.92;80.41;100544.88;4997188;28;20046;-79
2021/08/20 03:46:55;;;;;;;14.27;11.02;;;;;;;17.96;79.72;100534.97;5000847;28;20069;-80
2021/08/20 03:50:04;;;;;;;13.90;11.02;;;;;;;17.91;80.43;100543.13;4996828;28;20451;-79
2021/08/20 04:01:17;;;;;;;;;;;;;;;;;;;;;
2021/08/20 04:03:58;;;;;;;16.60;11.07;;;;;;;17.91;80.47;100548.47;4899975;29;20061;-79
2021/08/20 04:07:37;;;;;;;16.05;11.40;;;;;;;17.90;80.82;100554.75;4896481;29;20555;-80
2021/08/20 04:10:25;;;;;;;15.52;11.65;;;;;;;17.89;80.90;100544.09;4902535;29;20060;-81
2021/08/20 04:13:14;;;;;;;17.45;11.45;;;;;;;17.88;80.93;100548.59;4897547;29;20100;-81
2021/08/20 04:19:22;;;;;;;13.20;10.25;;;;;;;17.84;81.87;100544.28;4947878;28;20034;-80
2021/08/20 04:22:04;;;;;;;15.50;10.98;;;;;;;17.90;81.39;100536.06;5004365;28;20657;-80
2021/08/20 04:24:35;;;;;;;14.73;11.07;;;;;;;17.94;81.09;100540.34;4997176;28;20105;-80
2021/08/20 04:27:45;;;;;;;14.70;10.15;;;;;;;18.00;80.50;100541.94;4994876;28;20062;-80
2021/08/20 04:31:25;;;;;;;16.17;11.52;;;;;;;18.06;80.31;100543.50;4969978;28;20038;-81
2021/08/20 04:42:35;;;;;;;14.13;10.93;;;;;;;18.05;81.12;100552.44;4880244;29;20052;-80
2021/08/20 04:45:48;;;;;;;15.18;11.70;;;;;;;18.10;81.09;100546.03;4879265;29;20089;-80
2021/08/20 05:19:35;;;;;;;17.52;10.95;;;;;;;18.30;79.06;100569.28;4916652;29;20155;-79
2021/08/20 05:22:05;;;;;;;16.90;11.10;;;;;;;18.31;79.32;100559.47;4950077;28;20069;-81
2021/08/20 05:25:03;;;;;;;;;;;;;;;;;;;;;
2021/08/20 05:28:00;;;;;;;19.42;12.18;;;;;;;18.40;78.54;100557.34;5074229;22;20520;-80
2021/08/20 05:30:56;;;;;;;14.80;10.30;;;;;;;18.45;78.06;100564.31;4982512;28;20041;-79
2021/08/20 06:06:02;;;;;;;;;;;;;;;;;;;;;
2021/08/20 06:33:45;;;;;;;;;;;;;;;;;;;;;
2021/08/20 06:37:19;;;;;;;9.13;6.65;;;;;;;20.50;70.11;100563.66;5003912;28;20033;-80
2021/08/20 06:44:36;;;;;;;;;;;;;;;;;;;;;
2021/08/20 06:47:42;;;;;;;9.70;5.80;;;;;;;20.83;68.94;100565.75;4910295;29;20176;-80
2021/08/20 06:50:40;;;;;;;9.38;6.38;;;;;;;20.94;69.14;100563.41;4906524;29;20191;-81
2021/08/20 07:15:21;;;;;;;8.23;5.72;;;;;;;20.83;69.30;100584.50;4786717;30;20047;-80
2021/08/20 07:18:19;;;;;;;8.52;5.32;;;;;;;20.83;68.83;100588.97;4755328;30;20559;-81
2021/08/20 07:20:59;;;;;;;6.85;4.28;;;;;;;20.65;68.61;100593.44;4749902;30;20116;-81
2021/08/20 07:23:25;;;;;;;6.03;4.00;;;;;;;20.79;69.04;100586.47;4768592;30;20052;-81
2021/08/20 07:29:16;;;;;;;6.57;4.38;;;;;;;21.29;67.10;100584.94;4840056;29;20046;-81
2021/08/20 07:31:44;;;;;;;7.00;4.88;;;;;;;21.33;66.54;100589.22;4827091;29;20061;-81
2021/08/20 07:34:25;;;;;;;5.97;3.95;;;;;;;21.39;67.18;100583.56;4842779;29;20042;-80
2021/08/20 07:36:56;;;;;;;6.15;3.95;;;;;;;21.61;66.62;100583.38;4826341;29;20081;-81
2021/08/20 07:39:43;;;;;;;4.63;3.20;;;;;;;21.84;65.36;100573.22;4889741;29;20543;-80
2021/08/20 07:42:14;;;;;;;7.40;4.75;;;;;;;22.03;64.74;100574.00;4904792;28;20123;-81
2021/08/20 07:44:40;;;;;;;6.13;3.83;;;;;;;22.21;64.19;100574.84;4945831;28;20057;-80
2021/08/20 07:48:08;;;;;;;;;;;;;;;;;;;;;
2021/08/20 07:51:00;;;;;;;4.90;3.88;;;;;;;22.48;62.80;100579.72;4978892;28;20507;-81
2021/08/20 07:53:25;;;;;;;9.85;4.60;;;;;;;22.43;63.64;100571.03;4978534;28;20043;-81
2021/08/20 07:58:24;;;;;;;10.70;5.10;;;;;;;22.37;63.29;100571.34;5006995;28;20136;-81
2021/08/20 08:00:59;;;;;;;6.45;4.35;;;;;;;22.17;63.08;100575.94;5007259;28;20065;-81
2021/08/20 08:03:24;;;;;;;7.13;4.65;;;;;;;22.20;62.55;100575.81;4974667;28;20037;-81
2021/08/20 08:05:55;;;;;;;6.88;3.53;;;;;;;;;;5007155;28;20037;-81
2021/08/20 08:08:24;;;;;;;5.93;3.80;;;;;;;21.96;62.59;100593.22;5007386;28;20065;-81
2021/08/20 08:11:06;;;;;;;4.95;3.38;;;;;;;21.99;62.43;100593.06;5006723;28;20464;-80
2021/08/20 08:13:41;;;;;;;4.63;3.38;;;;;;;21.83;63.44;100595.69;5002624;28;20085;-81
2021/08/20 08:16:12;;;;;;;5.22;3.75;;;;;;;21.71;63.45;100605.22;4991145;28;20112;-81
2021/08/20 08:18:40;;;;;;;4.55;3.50;;;;;;;21.71;63.16;100596.31;5005543;28;20038;-81
2021/08/20 08:21:15;;;;;;;7.53;4.97;;;;;;;22.00;62.57;100601.03;5008531;28;20461;-82
2021/08/20 08:23:40;;;;;;;5.43;3.40;;;;;;;22.22;62.36;100600.81;5006057;28;20048;-81
2021/08/20 08:26:05;;;;;;;7.32;4.38;;;;;;;22.18;61.83;100603.69;4988366;28;20507;-81
2021/08/20 08:28:34;;;;;;;4.22;3.30;;;;;;;22.06;62.55;100607.88;4991717;28;20034;-81
2021/08/20 08:31:14;;;;;;;7.65;4.00;;;;;;;21.87;63.37;100608.00;5002496;28;20046;-81
2021/08/20 08:33:51;;;;;;;4.60;3.45;;;;;;;22.10;63.14;100607.66;5003836;28;20497;-81
2021/08/20 08:36:17;;;;;;;7.35;4.88;;;;;;;22.16;62.71;100606.44;5006614;28;20176;-81
2021/08/20 08:38:53;;;;;;;7.45;5.15;;;;;;;22.35;62.41;100600.13;5006593;28;20147;-81
2021/08/20 08:41:22;;;;;;;6.65;4.80;;;;;;;22.54;61.77;100612.50;4988825;28;20087;-81
2021/08/20 08:43:47;;;;;;;6.13;4.10;;;;;;;22.58;61.54;100617.69;5006787;28;20128;-81
2021/08/20 08:46:36;;;;;;;5.63;3.33;;;;;;;22.51;61.52;100614.50;5005521;28;20056;-81
2021/08/20 08:49:19;;;;;;;6.90;3.88;;;;;;;22.48;60.94;100623.59;5003673;28;20042;-81
2021/08/20 08:51:51;;;;;;;5.13;3.90;;;;;;;22.52;61.76;100618.91;4989079;28;20038;-81
2021/08/20 08:54:27;;;;;;;5.38;3.92;;;;;;;22.38;60.21;100616.13;5001012;28;20030;-81
2021/08/20 08:56:52;;;;;;;4.63;3.42;;;;;;;22.31;60.71;100620.94;5007258;28;20544;-82
2021/08/20 08:59:17;;;;;;;4.00;3.25;;;;;;;22.35;60.41;100624.31;5004798;28;20044;-81
2021/08/20 09:01:43;;;;;;;4.53;3.55;;;;;;;22.53;59.35;100626.00;4989076;28;20111;-82
2021/08/20 09:16:18;;;;;;;7.40;4.65;;;;;;;22.57;59.42;100626.75;4934488;29;20067;-80
2021/08/20 09:27:29;;;;;;;7.97;4.25;;;;;;;23.29;57.04;100620.91;5049774;23;20037;-81
2021/08/20 09:31:26;;;;;;;5.30;3.55;;;;;;;22.57;56.74;100606.09;4988805;28;20400;-81
2021/08/20 09:34:58;;;;;;;;;;;;;;;;;;;;;
2021/08/20 09:37:48;;;;;;;5.90;4.70;;;;;;;22.05;59.43;100614.22;4928137;29;20051;-81
2021/08/20 09:40:24;;;;;;;6.15;4.55;;;;;;;22.03;58.98;100616.13;4936876;28;20035;-81
2021/08/20 09:43:10;;;;;;;4.82;3.33;;;;;;;21.81;57.87;100617.25;4971335;28;20173;-81
2021/08/20 09:46:07;;;;;;;5.95;3.72;;;;;;;21.53;59.15;100607.03;4972060;28;20046;-81
2021/08/20 09:48:42;;;;;;;6.20;4.30;;;;;;;21.59;59.84;100613.94;4961028;28;20077;-81
2021/08/20 09:51:08;;;;;;;5.35;3.80;;;;;;;21.58;59.87;100625.59;4965668;28;20042;-81
2021/08/20 09:53:33;;;;;;;5.78;3.72;;;;;;;21.44;60.16;100635.22;4959467;28;20049;-81
2021/08/20 09:56:05;;;;;;;5.75;3.63;;;;;;;21.24;59.93;100637.97;4965372;28;20031;-81
2021/08/20 09:58:32;;;;;;;4.75;3.55;;;;;;;21.19;60.34;100642.69;4965136;28;20041;-79
2021/08/20 10:00:59;;;;;;;4.15;3.15;;;;;;;21.16;60.55;100635.66;4967843;28;20030;-81
2021/08/20 10:03:25;;;;;;;7.47;4.05;;;;;;;21.23;60.50;100638.94;4956226;28;20053;-82
2021/08/20 10:05:52;;;;;;;5.68;3.78;;;;;;;21.20;60.80;100631.91;4950874;28;20472;-82
2021/08/20 10:08:18;;;;;;;5.85;4.00;;;;;;;21.34;60.84;100627.66;4966042;28;20031;-81
2021/08/20 10:10:45;;;;;;;6.22;3.97;;;;;;;21.56;60.83;100630.16;4952493;28;20504;-81
2021/08/20 10:13:14;;;;;;;5.38;3.65;;;;;;;21.77;59.70;100615.69;4966154;28;20121;-81
2021/08/20 10:15:40;;;;;;;5.55;4.07;;;;;;;21.66;59.84;100618.03;4966747;28;20517;-82
2021/08/20 10:18:07;;;;;;;4.90;4.00;;;;;;;21.76;60.18;100611.22;4950030;28;20078;-82
2021/08/20 10:20:35;;;;;;;5.55;4.13;;;;;;;21.86;60.28;100625.94;4959353;28;20043;-81
2021/08/20 10:23:01;;;;;;;5.53;3.92;;;;;;;22.05;60.01;100623.16;4968630;28;20157;-81
2021/08/20 10:25:32;;;;;;;6.90;4.03;;;;;;;22.11;59.42;100619.25;4963832;28;20035;-81
2021/08/20 10:27:58;;;;;;;5.30;4.00;;;;;;;22.03;58.67;100614.31;4951640;29;20094;-81
2021/08/20 10:30:24;;;;;;;5.15;4.30;;;;;;;22.09;59.01;100623.88;4958829;28;20109;-81
2021/08/20 10:33:06;;;;;;;5.60;4.57;;;;;;;22.16;59.61;100621.72;4977841;28;20086;-83
2021/08/20 10:35:56;;;;;;;5.70;4.75;;;;;;;22.28;58.48;100627.34;4966088;28;20039;-82
2021/08/20 10:38:38;;;;;;;6.63;4.38;;;;;;;22.35;58.38;100621.63;4964824;28;20054;-82
2021/08/20 10:41:25;;;;;;;6.72;4.53;;;;;;;22.57;57.78;100615.97;4950755;28;20047;-82
2021/08/20 10:44:02;;;;;;;6.15;5.30;;;;;;;22.65;56.66;100617.28;4965180;28;20045;-82
2021/08/20 10:46:33;;;;;;;6.25;5.20;;;;;;;22.86;55.37;100614.38;4968240;28;20478;-82
2021/08/20 10:49:11;;;;;;;5.78;4.70;;;;;;;22.94;54.37;100612.09;4954538;28;20382;-81
2021/08/20 10:51:58;;;;;;;5.93;4.60;;;;;;;22.74;54.61;100607.81;4959680;28;20039;-81
2021/08/20 10:54:42;;;;;;;5.60;4.78;;;;;;;22.72;53.04;100618.69;4964907;28;20042;-81
2021/08/20 10:57:12;;;;;;;6.72;4.53;;;;;;;23.11;53.24;100606.69;4956266;28;20034;-82
2021/08/20 10:59:43;;;;;;;6.43;4.72;;;;;;;23.57;51.80;100606.69;4944373;29;20042;-78
2021/08/20 11:02:18;;;;;;;6.22;3.95;;;;;;;23.75;52.18;100595.81;4948919;28;20074;-82
2021/08/20 11:05:03;;;;;;;5.55;4.50;;;;;;;23.77;51.19;100593.91;4966278;28;20046;-81
2021/08/20 11:07:34;;;;;;;5.57;4.22;;;;;;;23.63;50.11;100583.88;4968978;28;20093;-81
2021/08/20 11:10:00;;;;;;;9.65;4.38;;;;;;;23.62;49.56;100593.81;4968386;28;20133;-81
2021/08/20 11:13:08;;;;;;;5.18;3.42;;;;;;;23.62;49.58;100596.50;4965497;28;20071;-81
2021/08/20 11:15:44;;;;;;;7.75;4.13;;;;;;;23.89;49.54;100603.91;4965351;28;20055;-82
2021/08/20 11:18:09;;;;;;;5.50;3.90;;;;;;;23.75;48.99;100598.50;4967619;28;20046;-81
2021/08/20 11:20:53;;;;;;;5.55;3.97;;;;;;;23.87;49.54;100604.97;4967724;28;20042;-82
2021/08/20 11:23:18;;;;;;;5.05;3.45;;;;;;;23.83;48.14;100604.28;4968553;28;20038;-81
2021/08/20 11:25:58;;;;;;;6.55;3.35;;;;;;;24.12;47.80;100604.34;4965913;28;20089;-81
2021/08/20 11:28:26;;;;;;;4.55;3.40;;;;;;;24.38;48.33;100600.03;4955214;29;20058;-81
2021/08/20 11:31:04;;;;;;;5.55;3.70;;;;;;;24.64;47.41;100598.41;4971688;28;20060;-81
2021/08/20 11:33:31;;;;;;;4.45;3.17;;;;;;;24.86;46.30;100596.09;4968229;28;20058;-82
2021/08/20 11:36:02;;;;;;;4.68;3.03;;;;;;;24.65;46.88;100594.75;4967864;28;20500;-82
2021/08/20 11:38:35;;;;;;;5.40;3.72;;;;;;;24.58;47.93;100596.97;4964531;28;20043;-82
2021/08/20 11:41:06;;;;;;;6.00;3.13;;;;;;;24.36;47.15;100610.91;4950746;28;20473;-81
2021/08/20 11:43:32;;;;;;;5.95;3.85;;;;;;;23.90;47.09;100600.28;4960049;28;20035;-82
2021/08/20 11:46:03;;;;;;;6.28;4.30;;;;;;;24.05;46.99;100604.72;4949805;28;20078;-82
2021/08/20 11:48:29;;;;;;;4.82;3.00;;;;;;;24.04;46.91;100594.03;4944778;29;20036;-82
2021/08/20 11:50:57;;;;;;;5.97;3.00;;;;;;;23.99;46.80;100607.78;4962727;28;20108;-81
2021/08/20 11:53:24;;;;;;;4.93;2.88;;;;;;;23.95;47.35;100608.94;4948207;29;20545;-81
2021/08/20 11:56:07;;;;;;;4.53;2.65;;;;;;;24.04;47.65;100602.13;4964687;28;20043;-82
2021/08/20 11:58:32;;;;;;;6.00;2.60;;;;;;;24.08;46.83;100608.19;4950654;28;20046;-82
2021/08/20 12:00:58;;;;;;;5.60;3.65;;;;;;;23.84;47.25;100612.28;4952538;28;20050;-82
2021/08/20 12:03:23;;;;;;;5.25;3.55;;;;;;;23.73;47.56;100613.88;4958062;28;20026;-81
2021/08/20 12:05:48;;;;;;;5.63;3.40;;;;;;;23.85;47.93;100607.78;4970615;28;20055;-82
2021/08/20 12:08:16;;;;;;;6.10;3.78;;;;;;;23.82;47.91;100613.34;4969324;28;20038;-82
2021/08/20 12:10:43;;;;;;;5.20;3.75;;;;;;;23.65;48.30;100614.31;4967573;28;20039;-82
2021/08/20 12:13:13;;;;;;;5.90;4.20;;;;;;;23.72;48.51;100622.94;4949530;28;20111;-81
2021/08/20 12:15:39;;;;;;;7.43;4.45;;;;;;;23.52;48.31;100622.25;4968508;28;20058;-82
2021/08/20 12:18:21;;;;;;;9.15;4.30;;;;;;;23.39;48.82;100618.53;4969897;28;20405;-82
2021/08/20 12:20:47;;;;;;;6.07;4.53;;;;;;;23.38;47.93;100624.88;4971213;28;20101;-82
2021/08/20 12:23:12;;;;;;;4.90;3.83;;;;;;;23.47;49.16;100618.94;4969069;28;20047;-82
2021/08/20 12:25:41;;;;;;;5.93;3.65;;;;;;;23.80;48.47;100613.44;4948906;29;20051;-82
2021/08/20 12:28:11;;;;;;;5.22;3.80;;;;;;;23.94;47.47;100615.28;4968986;28;20050;-82
2021/08/20 12:30:37;;;;;;;6.35;3.28;;;;;;;24.14;47.19;100611.38;4951373;28;20382;-82
2021/08/20 12:33:03;;;;;;;4.82;3.72;;;;;;;24.10;45.26;100612.50;4968532;28;20074;-82
2021/08/20 12:35:28;;;;;;;5.22;2.75;;;;;;;24.08;45.75;100616.28;4950358;28;20039;-82
2021/08/20 12:38:03;;;;;;;4.10;3.05;;;;;;;24.23;44.67;100613.53;4963441;28;20058;-82
2021/08/20 12:40:42;;;;;;;4.60;3.10;;;;;;;24.65;44.62;100603.72;4960564;28;20035;-82
2021/08/20 12:43:31;;;;;;;4.80;2.90;;;;;;;24.28;43.56;100615.91;4966664;28;20038;-82
2021/08/20 12:46:18;;;;;;;5.57;3.10;;;;;;;24.19;45.30;100611.97;4969103;28;20035;-82
2021/08/20 12:48:52;;;;;;;5.22;3.22;;;;;;;23.84;44.91;100619.50;4967231;28;20097;-82
2021/08/20 12:51:18;;;;;;;4.28;3.15;;;;;;;24.67;43.91;100609.88;4968827;28;20046;-82
2021/08/20 12:53:43;;;;;;;5.43;3.15;;;;;;;25.48;41.54;100603.72;4949477;28;20050;-83
2021/08/20 12:56:09;;;;;;;4.03;2.97;;;;;;;26.17;41.31;100604.44;4977319;28;20045;-82
2021/08/20 12:58:36;;;;;;;3.60;2.90;;;;;;;26.72;39.24;100604.19;4955707;28;20043;-82
2021/08/20 13:01:07;;;;;;;4.55;3.08;;;;;;;27.36;38.80;100596.75;4968596;28;20038;-82
2021/08/20 13:03:34;;;;;;;4.80;3.40;;;;;;;27.75;37.15;100603.69;4935978;28;20039;-82
2021/08/20 13:06:02;;;;;;;5.05;2.88;;;;;;;27.64;37.29;100602.75;4951034;28;20062;-82
2021/08/20 13:08:29;;;;;;;4.05;3.00;;;;;;;26.74;38.40;100604.94;4966730;28;20066;-82
2021/08/20 13:10:57;;;;;;;7.40;3.53;;;;;;;26.65;37.43;100606.47;4958713;28;20059;-82
2021/08/20 13:13:23;;;;;;;4.80;3.55;;;;;;;27.36;36.68;100609.44;4955864;28;20042;-83
2021/08/20 13:15:49;;;;;;;5.22;3.25;;;;;;;27.13;37.42;100613.81;4970552;28;20038;-81
2021/08/20 13:18:15;;;;;;;4.95;3.90;;;;;;;27.37;37.96;100612.00;4973684;28;20038;-82
2021/08/20 13:20:42;;;;;;;5.10;3.28;;;;;;;27.41;37.12;100609.94;4967569;28;20039;-82
2021/08/20 13:23:07;;;;;;;4.32;3.20;;;;;;;26.41;38.69;100606.38;4953187;28;20038;-81
2021/08/20 13:25:33;;;;;;;4.60;3.17;;;;;;;25.63;40.69;100611.78;4950528;28;20401;-80
2021/08/20 13:27:58;;;;;;;5.43;3.58;;;;;;;25.24;41.06;100614.34;4970613;28;20034;-81
2021/08/20 13:30:23;;;;;;;5.90;3.45;;;;;;;24.97;41.71;100613.38;4950638;28;20046;-81
2021/08/20 13:32:48;;;;;;;6.80;3.58;;;;;;;25.12;41.16;100610.56;4967799;28;20031;-80
2021/08/20 13:35:14;;;;;;;3.85;2.85;;;;;;;25.10;41.78;100611.66;4967086;28;20126;-81
2021/08/20 13:37:39;;;;;;;4.43;3.60;;;;;;;25.31;40.91;100615.66;4965477;28;20115;-81
2021/08/20 13:40:05;;;;;;;3.90;3.25;;;;;;;25.04;42.02;100612.91;4964121;28;20089;-81
2021/08/20 13:42:32;;;;;;;5.78;4.00;;;;;;;25.51;40.41;100613.44;4934752;28;20035;-81
2021/08/20 13:44:57;;;;;;;5.50;4.18;;;;;;;26.84;38.39;100606.00;4949392;28;20105;-81
2021/08/20 13:47:23;;;;;;;4.20;3.80;;;;;;;27.45;37.76;100598.75;4964041;28;20094;-81
2021/08/20 13:49:48;;;;;;;3.97;3.42;;;;;;;27.48;37.60;100601.25;4964156;28;20038;-81
2021/08/20 13:52:13;;;;;;;5.03;4.15;;;;;;;27.82;37.64;100604.09;4965096;28;20035;-81
2021/08/20 13:54:39;;;;;;;5.63;3.95;;;;;;;28.23;35.02;100596.41;4967462;28;20046;-80
2021/08/20 13:57:04;;;;;;;5.43;4.30;;;;;;;28.17;35.40;100595.06;4955221;28;20034;-81
2021/08/20 13:59:29;;;;;;;5.13;4.25;;;;;;;28.22;34.83;100603.69;4953402;28;20041;-80
2021/08/20 14:01:55;;;;;;;5.60;4.10;;;;;;;28.27;34.79;100593.34;4969569;28;20031;-80
2021/08/20 14:04:20;;;;;;;5.75;3.97;;;;;;;27.63;36.24;100587.47;4962497;28;20419;-80
2021/08/20 14:06:45;;;;;;;6.65;4.07;;;;;;;27.13;36.82;100595.72;4955643;28;20039;-80
2021/08/20 14:09:11;;;;;;;5.25;3.70;;;;;;;27.02;37.32;100588.41;4965570;28;20047;-75
2021/08/20 14:11:37;;;;;;;4.93;3.58;;;;;;;26.89;37.43;100614.66;4968565;28;20026;-75
2021/08/20 14:14:03;;;;;;;8.07;4.25;;;;;;;26.28;38.22;100609.06;4964364;28;20047;-74
2021/08/20 14:16:28;;;;;;;6.25;3.95;;;;;;;25.94;39.52;100606.03;4963777;28;20042;-74
2021/08/20 14:18:53;;;;;;;5.20;3.80;;;;;;;25.74;40.17;100610.06;4964790;28;20137;-75
2021/08/20 14:21:20;;;;;;;5.30;4.30;;;;;;;26.05;39.98;100610.69;4970340;28;20037;-75
2021/08/20 14:23:45;;;;;;;5.03;4.05;;;;;;;27.26;36.85;100603.84;4955329;28;20034;-74
2021/08/20 14:26:11;;;;;;;6.65;3.90;;;;;;;27.82;36.09;100620.34;4951196;28;20547;-74
2021/08/20 14:28:36;;;;;;;5.35;3.72;;;;;;;27.37;37.27;100614.72;4969094;28;20405;-75
2021/08/20 14:31:02;;;;;;;5.13;3.78;;;;;;;26.54;37.27;100612.66;4972462;28;20534;-75
2021/08/20 14:33:29;;;;;;;5.65;4.25;;;;;;;25.70;39.64;100624.78;4970834;28;20034;-74
2021/08/20 14:35:54;;;;;;;5.13;3.85;;;;;;;25.31;40.69;100633.72;4970082;28;20037;-75
2021/08/20 14:38:20;;;;;;;5.50;4.00;;;;;;;25.08;40.61;100622.53;4964294;28;20117;-73
2021/08/20 14:40:45;;;;;;;4.38;3.47;;;;;;;24.99;41.19;100627.66;4964545;28;20129;-75
2021/08/20 14:43:10;;;;;;;7.03;4.07;;;;;;;24.86;41.56;100636.56;4962064;28;20158;-75
2021/08/20 14:45:36;;;;;;;5.53;4.20;;;;;;;24.63;41.66;100629.09;4964198;28;20050;-74
2021/08/20 14:48:04;;;;;;;5.00;3.45;;;;;;;24.91;41.79;100626.31;4969593;28;20046;-74
2021/08/20 14:50:31;;;;;;;5.07;3.47;;;;;;;25.30;41.36;100630.13;4969380;28;20098;-75
2021/08/20 14:52:57;;;;;;;5.80;3.67;;;;;;;25.60;39.93;100629.06;4968273;28;20082;-75
2021/08/20 14:55:22;;;;;;;7.03;3.88;;;;;;;25.45;40.69;100632.78;4946201;28;20075;-74
2021/08/20 14:57:48;;;;;;;6.38;3.22;;;;;;;25.29;40.81;100625.69;4970366;28;20121;-75
2021/08/20 15:00:14;;;;;;;6.40;4.50;;;;;;;25.59;40.45;100632.72;4969188;28;20039;-75
2021/08/20 15:02:39;;;;;;;5.45;4.28;;;;;;;26.71;37.97;100634.94;4963286;28;20042;-75
2021/08/20 15:05:05;;;;;;;5.20;4.18;;;;;;;27.44;36.76;100624.13;4970653;28;20164;-75
2021/08/20 15:07:30;;;;;;;5.15;4.63;;;;;;;28.55;35.02;100631.88;4969223;28;20030;-75
2021/08/20 15:09:55;;;;;;;4.47;3.55;;;;;;;28.39;35.19;100634.91;4963146;28;20054;-75
2021/08/20 15:12:25;;;;;;;8.63;5.75;;;;;;;28.78;34.60;100621.88;4966777;28;20038;-75
2021/08/20 15:14:50;;;;;;;6.13;5.47;;;;;;;29.16;33.75;100639.63;4965847;28;20565;-75